createdAt,value
2022-08-26T00:01:42.073Z,6.85
2022-08-26T00:04:11.909Z,6.80
2022-08-26T00:06:39.069Z,6.97
2022-08-26T00:09:09.870Z,6.80
2022-08-26T00:11:36.716Z,7.05
2022-08-26T00:14:03.641Z,6.45
2022-08-26T00:16:31.324Z,6.20
2022-08-26T00:18:58.102Z,5.95
2022-08-26T00:21:24.794Z,6.10
2022-08-26T00:23:51.492Z,6.13
2022-08-26T00:26:18.488Z,6.00
2022-08-26T00:28:45.531Z,5.63
2022-08-26T00:31:12.458Z,5.18
2022-08-26T00:33:39.977Z,5.60
2022-08-26T00:36:07.762Z,5.20
2022-08-26T00:38:37.808Z,5.65
2022-08-26T00:41:05.322Z,5.87
2022-08-26T00:43:46.264Z,5.68
2022-08-26T00:46:17.897Z,6.13
2022-08-26T00:48:49.300Z,5.82
2022-08-26T00:51:19.913Z,6.28
2022-08-26T00:53:59.414Z,6.03
2022-08-26T00:56:33.044Z,6.05
2022-08-26T00:59:03.231Z,5.88
2022-08-26T01:01:31.254Z,5.80
2022-08-26T01:03:58.850Z,6.05
2022-08-26T01:06:27.317Z,6.30
2022-08-26T01:08:54.527Z,6.35
2022-08-26T01:11:21.139Z,6.68
2022-08-26T01:13:48.877Z,6.15
2022-08-26T01:16:17.082Z,6.45
2022-08-26T01:18:44.515Z,6.70
2022-08-26T01:21:53.717Z,6.80
2022-08-26T01:24:20.549Z,6.82
2022-08-26T01:26:48.409Z,6.85
2022-08-26T01:29:18.966Z,7.00
2022-08-26T01:31:51.796Z,6.53
2022-08-26T01:34:24.336Z,7.05
2022-08-26T01:36:54.755Z,6.95
2022-08-26T01:39:21.576Z,6.82
2022-08-26T01:41:48.689Z,7.25
2022-08-26T01:44:22.726Z,6.83
2022-08-26T01:46:50.706Z,6.72
2022-08-26T01:49:18.082Z,7.40
2022-08-26T01:51:45.979Z,6.50
2022-08-26T01:54:14.020Z,7.20
2022-08-26T01:56:40.886Z,7.27
2022-08-26T01:59:12.233Z,6.28
2022-08-26T02:01:39.490Z,6.45
2022-08-26T02:04:22.754Z,6.00
2022-08-26T02:06:49.752Z,6.22
2022-08-26T02:09:18.088Z,5.83
2022-08-26T02:11:47.333Z,6.20
2022-08-26T02:14:18.281Z,5.63
2022-08-26T02:16:47.734Z,5.93
2022-08-26T02:19:17.499Z,6.13
2022-08-26T02:21:45.995Z,6.50
2022-08-26T02:24:27.325Z,6.68
2022-08-26T02:26:55.250Z,6.25
2022-08-26T02:29:24.484Z,5.97
2022-08-26T02:31:52.720Z,6.00
2022-08-26T02:34:22.481Z,5.53
2022-08-26T02:36:49.809Z,5.80
2022-08-26T02:39:22.149Z,5.55
2022-08-26T02:41:49.373Z,5.28
2022-08-26T02:44:16.008Z,5.88
2022-08-26T02:46:46.769Z,6.27
2022-08-26T02:49:14.938Z,5.60
2022-08-26T02:51:42.995Z,5.78
2022-08-26T02:54:10.031Z,5.88
2022-08-26T02:56:36.732Z,5.90
2022-08-26T02:59:03.662Z,6.27
2022-08-26T03:01:32.705Z,6.20
2022-08-26T03:04:00.806Z,6.57
2022-08-26T03:06:27.574Z,6.50
2022-08-26T03:08:55.855Z,6.80
2022-08-26T03:11:23.630Z,6.73
2022-08-26T03:13:52.627Z,6.75
2022-08-26T03:16:20.703Z,6.75
2022-08-26T03:18:52.233Z,6.78
2022-08-26T03:21:19.305Z,7.13
2022-08-26T03:23:46.344Z,6.47
2022-08-26T03:26:14.545Z,6.68
2022-08-26T03:29:01.428Z,7.20
2022-08-26T03:31:29.865Z,7.40
2022-08-26T03:33:59.570Z,7.85
2022-08-26T03:36:27.057Z,7.30
2022-08-26T03:38:53.700Z,7.22
2022-08-26T03:41:21.431Z,6.78
2022-08-26T03:43:50.728Z,7.72
2022-08-26T03:46:18.557Z,7.88
2022-08-26T03:48:45.771Z,6.97
2022-08-26T03:51:19.093Z,7.70
2022-08-26T03:53:47.681Z,7.28
2022-08-26T03:56:15.244Z,6.78
2022-08-26T03:58:44.570Z,7.30
2022-08-26T04:01:14.090Z,6.90
2022-08-26T04:03:59.987Z,6.47
2022-08-26T04:06:39.188Z,6.90
2022-08-26T04:09:09.315Z,6.60
2022-08-26T04:11:38.945Z,7.10
2022-08-26T04:14:09.553Z,7.20
2022-08-26T04:16:36.925Z,6.93
2022-08-26T04:19:03.594Z,5.90
2022-08-26T04:21:30.373Z,6.75
2022-08-26T04:23:58.245Z,6.50
2022-08-26T04:26:25.556Z,6.43
2022-08-26T04:28:54.796Z,7.10
2022-08-26T04:31:21.656Z,6.55
2022-08-26T04:33:50.119Z,6.15
2022-08-26T04:36:19.799Z,7.10
2022-08-26T04:38:47.284Z,6.90
2022-08-26T04:41:14.841Z,6.47
2022-08-26T04:43:42.432Z,6.85
2022-08-26T04:46:10.227Z,6.72
2022-08-26T04:48:41.096Z,6.80
2022-08-26T04:51:09.708Z,6.47
2022-08-26T04:53:36.926Z,6.57
2022-08-26T04:56:03.873Z,6.45
2022-08-26T04:58:31.154Z,6.63
2022-08-26T05:00:58.575Z,6.70
2022-08-26T05:03:27.263Z,6.50
2022-08-26T05:05:57.764Z,6.75
2022-08-26T05:08:24.638Z,6.50
2022-08-26T05:10:56.841Z,7.05
2022-08-26T05:13:26.411Z,7.07
2022-08-26T05:15:54.456Z,7.37
2022-08-26T05:18:24.642Z,7.13
2022-08-26T05:20:54.846Z,7.43
2022-08-26T05:23:23.308Z,6.72
2022-08-26T05:25:54.669Z,6.88
2022-08-26T05:28:23.766Z,6.93
2022-08-26T05:30:51.112Z,7.70
2022-08-26T05:33:18.827Z,7.40
2022-08-26T05:35:46.919Z,7.35
2022-08-26T05:38:16.625Z,8.00
2022-08-26T05:40:52.941Z,7.70
2022-08-26T05:43:20.535Z,7.65
2022-08-26T05:45:49.755Z,7.57
2022-08-26T05:48:18.872Z,6.85
2022-08-26T05:50:51.528Z,7.57
2022-08-26T05:53:20.660Z,7.50
2022-08-26T05:55:54.248Z,7.65
2022-08-26T05:58:22.080Z,7.95
2022-08-26T06:00:57.732Z,8.35
2022-08-26T06:03:24.719Z,8.38
2022-08-26T06:05:51.342Z,8.70
2022-08-26T06:08:21.125Z,7.93
2022-08-26T06:10:51.016Z,8.82
2022-08-26T06:13:21.451Z,9.00
2022-08-26T06:15:50.084Z,9.30
2022-08-26T06:18:20.039Z,8.80
2022-08-26T06:20:57.456Z,9.10
2022-08-26T06:23:44.687Z,9.32
2022-08-26T06:26:12.230Z,8.75
2022-08-26T06:28:38.886Z,9.15
2022-08-26T06:31:06.112Z,9.00
2022-08-26T06:33:33.414Z,9.68
2022-08-26T06:36:01.194Z,9.98
2022-08-26T06:38:28.461Z,8.70
2022-08-26T06:40:55.787Z,9.55
2022-08-26T06:43:24.633Z,10.03
2022-08-26T06:45:51.969Z,9.75
2022-08-26T06:48:20.711Z,9.68
2022-08-26T06:50:48.159Z,9.50
2022-08-26T06:53:17.111Z,10.10
2022-08-26T06:55:46.291Z,9.50
2022-08-26T06:58:13.865Z,10.68
2022-08-26T07:00:41.683Z,10.10
2022-08-26T07:03:14.215Z,9.85
2022-08-26T07:05:40.902Z,9.43
2022-08-26T07:08:07.625Z,8.83
2022-08-26T07:10:36.369Z,9.27
2022-08-26T07:13:02.997Z,9.18
2022-08-26T07:15:33.703Z,10.05
2022-08-26T07:18:00.352Z,9.50
2022-08-26T07:20:27.044Z,9.63
2022-08-26T07:22:54.117Z,9.70
2022-08-26T07:25:20.838Z,9.05
2022-08-26T07:27:53.931Z,9.30
2022-08-26T07:30:20.997Z,9.38
2022-08-26T07:32:47.644Z,9.50
2022-08-26T07:35:14.818Z,9.57
2022-08-26T07:37:42.506Z,10.13
2022-08-26T07:40:09.907Z,9.82
2022-08-26T07:42:36.629Z,10.10
2022-08-26T07:45:04.332Z,10.30
2022-08-26T07:47:31.197Z,10.52
2022-08-26T07:49:59.677Z,10.07
2022-08-26T07:52:28.667Z,9.98
2022-08-26T07:55:01.218Z,10.38
2022-08-26T07:57:28.884Z,10.23
2022-08-26T07:59:56.667Z,9.95
2022-08-26T08:02:24.444Z,10.48
2022-08-26T08:04:51.779Z,9.45
2022-08-26T08:07:18.565Z,10.00
2022-08-26T08:09:45.304Z,10.43
2022-08-26T08:12:14.048Z,9.82
2022-08-26T08:14:42.180Z,9.77
2022-08-26T08:19:42.114Z,10.18
2022-08-26T08:22:17.763Z,10.07
2022-08-26T08:24:50.002Z,9.38
2022-08-26T08:27:23.654Z,10.13
2022-08-26T08:29:54.371Z,10.90
2022-08-26T08:32:22.649Z,10.00
2022-08-26T08:34:49.269Z,10.03
2022-08-26T08:37:15.931Z,10.15
2022-08-26T08:39:42.865Z,10.68
2022-08-26T08:42:30.782Z,10.20
2022-08-26T08:44:59.666Z,10.05
2022-08-26T08:47:37.013Z,10.33
2022-08-26T08:50:27.241Z,10.10
2022-08-26T08:53:31.667Z,9.73
2022-08-26T08:56:07.485Z,9.63
2022-08-26T08:58:56.924Z,10.35
2022-08-26T09:01:26.480Z,9.37
2022-08-26T09:04:29.288Z,10.23
2022-08-26T09:09:44.391Z,9.75
2022-08-26T09:12:15.922Z,10.02
2022-08-26T09:14:44.756Z,9.80
2022-08-26T09:17:43.985Z,9.85
2022-08-26T09:20:23.397Z,10.73
2022-08-26T09:22:51.362Z,10.98
2022-08-26T09:25:18.703Z,10.30
2022-08-26T09:27:50.442Z,9.73
2022-08-26T09:30:36.432Z,10.45
2022-08-26T09:33:10.892Z,9.85
2022-08-26T09:35:39.589Z,10.27
2022-08-26T09:38:27.905Z,11.18
2022-08-26T09:41:00.385Z,9.80
2022-08-26T09:43:28.941Z,9.90
2022-08-26T09:46:11.178Z,9.95
2022-08-26T09:48:41.181Z,10.23
2022-08-26T09:51:30.604Z,10.50
2022-08-26T09:54:00.182Z,9.53
2022-08-26T09:56:35.859Z,10.10
2022-08-26T09:59:03.635Z,9.85
2022-08-26T10:01:36.674Z,10.10
2022-08-26T10:04:11.384Z,10.18
2022-08-26T10:07:03.400Z,9.87
2022-08-26T10:09:34.369Z,10.10
2022-08-26T10:12:04.709Z,9.95
2022-08-26T10:14:36.506Z,9.88
2022-08-26T10:17:11.517Z,10.15
2022-08-26T10:19:56.700Z,10.00
2022-08-26T10:22:36.510Z,9.18
2022-08-26T10:25:07.144Z,10.00
2022-08-26T10:28:00.250Z,9.90
2022-08-26T10:30:46.540Z,9.70
2022-08-26T10:33:15.523Z,10.23
2022-08-26T10:36:06.703Z,9.40
2022-08-26T10:38:44.308Z,10.70
2022-08-26T10:41:15.840Z,10.15
2022-08-26T10:43:47.741Z,10.85
2022-08-26T10:46:17.376Z,10.60
2022-08-26T10:48:54.043Z,10.30
2022-08-26T10:51:25.413Z,11.32
2022-08-26T10:54:08.263Z,10.13
2022-08-26T10:57:01.490Z,9.45
2022-08-26T11:00:28.276Z,10.33
2022-08-26T11:03:01.319Z,9.90
2022-08-26T11:05:27.953Z,10.25
2022-08-26T11:08:20.505Z,11.23
2022-08-26T11:10:58.040Z,10.18
2022-08-26T11:14:05.020Z,10.83
2022-08-26T11:16:49.131Z,10.40
2022-08-26T11:20:02.026Z,10.25
2022-08-26T11:22:34.828Z,9.38
2022-08-26T11:25:06.908Z,10.07
2022-08-26T11:27:35.985Z,10.10
2022-08-26T11:30:02.634Z,10.00
2022-08-26T11:32:35.804Z,9.52
2022-08-26T11:35:11.237Z,9.40
2022-08-26T11:37:41.291Z,10.18
2022-08-26T11:40:38.735Z,9.90
2022-08-26T11:43:07.520Z,9.00
2022-08-26T11:45:47.276Z,9.30
2022-08-26T11:48:23.870Z,9.40
2022-08-26T11:51:23.819Z,9.25
2022-08-26T11:53:51.179Z,9.70
2022-08-26T11:56:28.753Z,10.07
2022-08-26T11:59:00.505Z,9.95
2022-08-26T12:01:31.278Z,9.45
2022-08-26T12:03:59.253Z,9.43
2022-08-26T12:06:30.070Z,9.43
2022-08-26T12:09:00.070Z,8.93
2022-08-26T12:11:30.405Z,9.40
2022-08-26T12:14:00.450Z,9.48
2022-08-26T12:16:29.708Z,9.35
2022-08-26T12:18:57.199Z,9.30
2022-08-26T12:21:28.986Z,9.13
2022-08-26T12:24:01.623Z,9.27
2022-08-26T12:26:34.017Z,9.38
2022-08-26T12:29:02.309Z,8.90
2022-08-26T12:31:46.685Z,9.13
2022-08-26T12:34:18.603Z,8.68
2022-08-26T12:39:33.117Z,8.38
2022-08-26T12:42:24.992Z,9.52
2022-08-26T12:45:00.451Z,7.60
2022-08-26T12:47:42.859Z,7.95
2022-08-26T12:50:10.137Z,7.53
2022-08-26T12:52:54.185Z,8.43
2022-08-26T12:55:24.647Z,8.05
2022-08-26T12:58:15.400Z,7.07
2022-08-26T13:00:45.024Z,7.80
2022-08-26T13:03:45.653Z,8.32
2022-08-26T13:06:22.193Z,7.97
2022-08-26T13:08:51.772Z,7.97
2022-08-26T13:11:21.077Z,7.90
2022-08-26T13:13:53.549Z,7.32
2022-08-26T13:16:21.488Z,8.50
2022-08-26T13:18:49.919Z,7.80
2022-08-26T13:21:19.657Z,7.93
2022-08-26T13:23:47.039Z,7.93
2022-08-26T13:26:14.100Z,8.48
2022-08-26T13:28:41.884Z,7.57
2022-08-26T13:31:10.796Z,7.68
2022-08-26T13:33:38.057Z,8.13
2022-08-26T13:36:07.073Z,7.10
2022-08-26T13:38:34.167Z,6.80
2022-08-26T13:41:02.588Z,7.35
2022-08-26T13:43:30.598Z,6.95
2022-08-26T13:45:57.328Z,7.20
2022-08-26T13:48:23.998Z,6.43
2022-08-26T13:50:51.857Z,6.20
2022-08-26T13:53:18.825Z,6.50
2022-08-26T13:55:46.061Z,6.40
2022-08-26T13:58:13.670Z,5.88
2022-08-26T14:00:41.714Z,5.87
2022-08-26T14:03:13.215Z,5.43
2022-08-26T14:05:40.405Z,5.55
2022-08-26T14:08:07.336Z,5.43
2022-08-26T14:10:34.283Z,5.10
2022-08-26T14:13:00.916Z,5.23
2022-08-26T14:15:27.969Z,5.00
2022-08-26T14:17:56.000Z,5.10
2022-08-26T14:20:29.073Z,5.18
2022-08-26T14:23:20.673Z,4.60
2022-08-26T14:25:42.968Z,5.03
2022-08-26T14:28:09.658Z,4.85
2022-08-26T14:30:39.366Z,4.43
2022-08-26T14:33:06.134Z,4.15
2022-08-26T14:35:32.755Z,4.65
2022-08-26T14:37:59.401Z,5.10
2022-08-26T14:40:29.360Z,5.32
2022-08-26T14:42:56.048Z,5.32
2022-08-26T14:45:27.070Z,5.07
2022-08-26T14:47:56.653Z,5.22
2022-08-26T14:50:25.924Z,5.10
2022-08-26T14:53:11.622Z,4.90
2022-08-26T14:55:41.209Z,4.65
2022-08-26T14:58:09.852Z,4.22
2022-08-26T15:00:37.736Z,5.45
2022-08-26T15:03:05.682Z,4.30
2022-08-26T15:05:33.317Z,4.60
2022-08-26T15:08:00.461Z,4.97
2022-08-26T15:10:27.096Z,4.70
2022-08-26T15:12:53.685Z,4.75
2022-08-26T15:15:20.405Z,4.17
2022-08-26T15:17:47.566Z,4.72
2022-08-26T15:20:16.140Z,5.03
2022-08-26T15:22:43.229Z,4.20
2022-08-26T15:25:10.954Z,4.78
2022-08-26T15:27:37.820Z,4.60
2022-08-26T15:30:09.805Z,4.50
2022-08-26T15:32:36.705Z,4.57
2022-08-26T15:35:08.728Z,4.60
2022-08-26T15:37:35.959Z,4.85
2022-08-26T15:40:02.951Z,4.60
2022-08-26T15:42:29.737Z,4.88
2022-08-26T15:44:56.354Z,4.38
2022-08-26T15:47:23.768Z,4.80
2022-08-26T15:49:50.694Z,4.40
2022-08-26T15:52:17.562Z,4.27
2022-08-26T15:54:44.216Z,4.18
2022-08-26T15:57:12.383Z,4.45
2022-08-26T15:59:40.363Z,4.82
2022-08-26T16:02:07.501Z,4.78
2022-08-26T16:04:34.277Z,4.70
2022-08-26T16:07:01.030Z,4.28
2022-08-26T16:09:28.820Z,4.50
2022-08-26T16:11:56.269Z,4.78
2022-08-26T16:14:23.653Z,4.45
2022-08-26T16:16:50.590Z,4.77
2022-08-26T16:19:17.508Z,4.28
2022-08-26T16:21:44.750Z,4.65
2022-08-26T16:24:11.989Z,4.15
2022-08-26T16:26:40.512Z,5.15
2022-08-26T16:29:09.778Z,4.30
2022-08-26T16:31:37.932Z,4.50
2022-08-26T16:34:08.177Z,4.85
2022-08-26T16:36:36.665Z,4.63
2022-08-26T16:39:04.338Z,4.90
2022-08-26T16:41:31.958Z,4.43
2022-08-26T16:43:59.005Z,4.57
2022-08-26T16:46:26.276Z,4.80
2022-08-26T16:48:54.404Z,4.85
2022-08-26T16:51:23.074Z,5.05
2022-08-26T16:53:50.734Z,5.10
2022-08-26T16:56:20.977Z,4.75
2022-08-26T16:58:50.640Z,5.10
2022-08-26T17:01:17.957Z,5.13
2022-08-26T17:03:44.607Z,5.07
2022-08-26T17:06:11.860Z,4.93
2022-08-26T17:08:39.475Z,5.85
2022-08-26T17:11:06.399Z,5.55
2022-08-26T17:13:35.767Z,4.90
2022-08-26T17:16:05.027Z,5.43
2022-08-26T17:18:32.417Z,5.30
2022-08-26T17:21:04.474Z,4.72
2022-08-26T17:23:31.102Z,5.35
2022-08-26T17:25:57.808Z,5.35
2022-08-26T17:28:24.537Z,5.75
2022-08-26T17:30:51.287Z,4.83
2022-08-26T17:33:22.114Z,5.28
2022-08-26T17:35:51.474Z,5.20
2022-08-26T17:38:18.108Z,5.28
2022-08-26T17:40:45.132Z,4.78
2022-08-26T17:43:12.505Z,4.73
2022-08-26T17:45:40.380Z,4.82
2022-08-26T17:48:07.224Z,4.97
2022-08-26T17:50:34.056Z,5.07
2022-08-26T17:53:00.716Z,4.95
2022-08-26T17:55:27.309Z,4.83
2022-08-26T17:57:54.093Z,5.13
2022-08-26T18:00:26.476Z,4.70
2022-08-26T18:02:54.779Z,4.85
2022-08-26T18:05:21.830Z,5.22
2022-08-26T18:07:48.519Z,4.87
2022-08-26T18:10:20.598Z,4.90
2022-08-26T18:12:47.823Z,4.68
2022-08-26T18:15:16.585Z,5.40
2022-08-26T18:17:43.900Z,5.78
2022-08-26T18:20:13.585Z,4.87
2022-08-26T18:22:40.538Z,4.80
2022-08-26T18:25:08.419Z,5.25
2022-08-26T18:27:36.132Z,5.32
2022-08-26T18:30:10.513Z,5.00
2022-08-26T18:32:39.006Z,5.00
2022-08-26T18:35:06.058Z,4.85
2022-08-26T18:37:32.750Z,5.30
2022-08-26T18:39:59.510Z,5.20
2022-08-26T18:42:26.706Z,5.70
2022-08-26T18:44:53.806Z,4.93
2022-08-26T18:47:20.801Z,4.88
2022-08-26T18:49:48.571Z,5.60
2022-08-26T18:52:15.463Z,5.15
2022-08-26T18:54:42.489Z,5.20
2022-08-26T18:57:09.240Z,4.83
2022-08-26T18:59:35.985Z,4.95
2022-08-26T19:02:02.764Z,5.45
2022-08-26T19:04:29.603Z,5.47
2022-08-26T19:06:56.871Z,5.45
2022-08-26T19:09:26.220Z,5.43
2022-08-26T19:11:53.071Z,5.60
2022-08-26T19:14:19.831Z,5.95
2022-08-26T19:16:48.507Z,4.85
2022-08-26T19:19:15.489Z,5.35
2022-08-26T19:21:42.448Z,5.73
2022-08-26T19:24:15.325Z,5.10
2022-08-26T19:26:43.743Z,5.10
2022-08-26T19:29:10.548Z,5.18
2022-08-26T19:31:37.187Z,5.28
2022-08-26T19:34:05.324Z,4.80
2022-08-26T19:36:32.802Z,5.60
2022-08-26T19:39:00.213Z,5.80
2022-08-26T19:41:36.547Z,5.18
2022-08-26T19:44:10.268Z,5.70
2022-08-26T19:49:08.708Z,6.05
2022-08-26T19:51:36.640Z,5.53
2022-08-26T19:54:04.293Z,5.70
2022-08-26T19:56:31.250Z,5.97
2022-08-26T19:58:58.087Z,5.30
2022-08-26T20:01:25.555Z,4.90
2022-08-26T20:03:52.492Z,5.25
2022-08-26T20:06:20.160Z,5.07
2022-08-26T20:08:47.051Z,5.60
2022-08-26T20:11:17.079Z,5.70
2022-08-26T20:13:44.651Z,5.57
2022-08-26T20:16:12.058Z,5.53
2022-08-26T20:18:59.465Z,5.10
2022-08-26T20:21:26.591Z,6.07
2022-08-26T20:24:02.034Z,5.70
2022-08-26T20:26:30.806Z,6.00
2022-08-26T20:28:57.629Z,6.10
2022-08-26T20:31:25.844Z,5.53
2022-08-26T20:33:52.923Z,5.68
2022-08-26T20:36:21.338Z,6.00
2022-08-26T20:38:48.792Z,6.03
2022-08-26T20:41:16.040Z,6.05
2022-08-26T20:43:43.168Z,6.30
2022-08-26T20:46:18.056Z,5.78
2022-08-26T20:48:48.210Z,5.40
2022-08-26T20:51:16.075Z,6.35
2022-08-26T20:53:44.212Z,5.63
2022-08-26T20:56:12.703Z,6.07
2022-08-26T20:58:39.785Z,6.35
2022-08-26T21:01:08.199Z,5.77
2022-08-26T21:03:36.378Z,6.20
2022-08-26T21:06:03.758Z,6.18
2022-08-26T21:08:33.255Z,6.30
2022-08-26T21:11:00.971Z,6.18
2022-08-26T21:13:33.028Z,6.83
2022-08-26T21:16:10.292Z,6.28
2022-08-26T21:18:37.162Z,6.38
2022-08-26T21:21:05.912Z,6.50
2022-08-26T21:23:32.961Z,6.43
2022-08-26T21:26:04.106Z,6.50
2022-08-26T21:28:31.014Z,6.20
2022-08-26T21:30:57.628Z,6.90
2022-08-26T21:33:24.286Z,6.75
2022-08-26T21:35:55.607Z,6.53
2022-08-26T21:38:22.552Z,6.70
2022-08-26T21:41:04.671Z,6.80
2022-08-26T21:43:35.343Z,7.20
2022-08-26T21:46:14.485Z,7.50
2022-08-26T21:48:45.679Z,7.80
2022-08-26T21:51:15.990Z,7.93
2022-08-26T21:53:42.809Z,8.30
2022-08-26T21:56:12.159Z,9.23
2022-08-26T21:58:39.256Z,9.70
2022-08-26T22:01:10.935Z,9.50
2022-08-26T22:03:47.530Z,10.40
2022-08-26T22:06:16.450Z,10.80
2022-08-26T22:08:43.085Z,11.68
2022-08-26T22:11:10.426Z,11.45
2022-08-26T22:13:38.928Z,11.95
2022-08-26T22:16:05.958Z,13.20
2022-08-26T22:18:32.861Z,12.38
2022-08-26T22:21:01.968Z,12.82
2022-08-26T22:23:29.016Z,13.45
2022-08-26T22:25:56.021Z,13.20
2022-08-26T22:28:23.081Z,13.80
2022-08-26T22:30:50.665Z,12.55
2022-08-26T22:33:17.655Z,13.30
2022-08-26T22:35:47.709Z,13.52
2022-08-26T22:38:14.660Z,13.25
2022-08-26T22:41:00.334Z,12.93
2022-08-26T22:43:28.572Z,12.70
2022-08-26T22:45:55.899Z,12.65
2022-08-26T22:48:24.892Z,12.00
2022-08-26T22:50:57.124Z,12.82
2022-08-26T22:53:26.313Z,12.43
2022-08-26T22:55:53.144Z,12.52
2022-08-26T22:58:20.907Z,13.35
2022-08-26T23:00:57.434Z,13.20
2022-08-26T23:03:26.592Z,12.75
2022-08-26T23:05:53.282Z,12.87
2022-08-26T23:08:20.424Z,11.85
2022-08-26T23:10:47.458Z,12.65
2022-08-26T23:13:15.342Z,13.18
2022-08-26T23:15:42.440Z,12.55
2022-08-26T23:18:10.059Z,12.30
2022-08-26T23:20:37.420Z,12.40
2022-08-26T23:23:04.424Z,11.85
2022-08-26T23:25:32.477Z,12.63
2022-08-26T23:28:00.459Z,11.80
2022-08-26T23:30:29.428Z,11.40
2022-08-26T23:32:56.172Z,11.35
2022-08-26T23:35:22.864Z,11.45
2022-08-26T23:37:52.465Z,12.20
2022-08-26T23:40:25.525Z,11.98
2022-08-26T23:42:56.614Z,11.40
2022-08-26T23:45:24.057Z,11.73
2022-08-26T23:47:51.192Z,10.82
2022-08-26T23:50:19.288Z,11.00
2022-08-26T23:53:04.681Z,10.63
2022-08-26T23:55:34.735Z,10.80
2022-08-26T23:58:01.382Z,11.05
